sensor_id;sensor_type;location;lat;lon;timestamp;temperature;humidity
81216;DHT22;70688;52.492;13.420;2023-09-08T00:00:30;21.20;53.50
81216;DHT22;70688;52.492;13.420;2023-09-08T00:02:56;21.40;52.60
81216;DHT22;70688;52.492;13.420;2023-09-08T00:05:21;21.30;53.10
81216;DHT22;70688;52.492;13.420;2023-09-08T00:07:47;21.30;53.20
81216;DHT22;70688;52.492;13.420;2023-09-08T00:10:12;21.50;52.80
81216;DHT22;70688;52.492;13.420;2023-09-08T00:12:38;21.40;52.90
81216;DHT22;70688;52.492;13.420;2023-09-08T00:15:04;21.10;53.50
81216;DHT22;70688;52.492;13.420;2023-09-08T00:17:29;21.30;53.30
81216;DHT22;70688;52.492;13.420;2023-09-08T00:19:56;21.20;53.70
81216;DHT22;70688;52.492;13.420;2023-09-08T00:22:22;21.20;53.60
81216;DHT22;70688;52.492;13.420;2023-09-08T00:24:47;21.20;53.80
81216;DHT22;70688;52.492;13.420;2023-09-08T00:27:13;21.10;53.90
81216;DHT22;70688;52.492;13.420;2023-09-08T00:29:39;21.10;53.80
81216;DHT22;70688;52.492;13.420;2023-09-08T00:32:04;21.00;54.20
81216;DHT22;70688;52.492;13.420;2023-09-08T00:34:30;20.90;54.70
81216;DHT22;70688;52.492;13.420;2023-09-08T00:36:56;21.00;54.40
81216;DHT22;70688;52.492;13.420;2023-09-08T00:39:21;21.00;54.00
81216;DHT22;70688;52.492;13.420;2023-09-08T00:41:47;20.90;54.40
81216;DHT22;70688;52.492;13.420;2023-09-08T00:44:12;20.80;54.60
81216;DHT22;70688;52.492;13.420;2023-09-08T00:46:38;20.90;54.40
81216;DHT22;70688;52.492;13.420;2023-09-08T00:49:04;21.00;54.10
81216;DHT22;70688;52.492;13.420;2023-09-08T00:51:30;21.00;53.90
81216;DHT22;70688;52.492;13.420;2023-09-08T00:53:56;20.90;54.60
81216;DHT22;70688;52.492;13.420;2023-09-08T00:56:22;20.70;55.40
81216;DHT22;70688;52.492;13.420;2023-09-08T00:58:47;20.70;55.50
81216;DHT22;70688;52.492;13.420;2023-09-08T01:01:13;20.70;55.30
81216;DHT22;70688;52.492;13.420;2023-09-08T01:03:39;20.60;55.50
81216;DHT22;70688;52.492;13.420;2023-09-08T01:06:05;20.50;56.00
81216;DHT22;70688;52.492;13.420;2023-09-08T01:08:31;20.50;56.00
81216;DHT22;70688;52.492;13.420;2023-09-08T01:10:56;20.60;55.40
81216;DHT22;70688;52.492;13.420;2023-09-08T01:13:22;20.50;56.20
81216;DHT22;70688;52.492;13.420;2023-09-08T01:15:49;20.60;55.50
81216;DHT22;70688;52.492;13.420;2023-09-08T01:18:14;20.70;55.30
81216;DHT22;70688;52.492;13.420;2023-09-08T01:25:39;20.70;55.60
81216;DHT22;70688;52.492;13.420;2023-09-08T01:28:05;20.40;56.10
81216;DHT22;70688;52.492;13.420;2023-09-08T01:30:31;20.50;56.00
81216;DHT22;70688;52.492;13.420;2023-09-08T01:32:57;20.50;55.80
81216;DHT22;70688;52.492;13.420;2023-09-08T01:35:23;20.40;56.10
81216;DHT22;70688;52.492;13.420;2023-09-08T01:37:50;20.50;55.90
81216;DHT22;70688;52.492;13.420;2023-09-08T01:40:15;20.40;55.90
81216;DHT22;70688;52.492;13.420;2023-09-08T01:42:41;20.20;56.90
81216;DHT22;70688;52.492;13.420;2023-09-08T01:45:07;20.30;56.50
81216;DHT22;70688;52.492;13.420;2023-09-08T01:47:32;20.20;56.50
81216;DHT22;70688;52.492;13.420;2023-09-08T01:49:58;20.10;56.90
81216;DHT22;70688;52.492;13.420;2023-09-08T01:52:24;19.80;58.30
81216;DHT22;70688;52.492;13.420;2023-09-08T01:54:49;19.80;58.60
81216;DHT22;70688;52.492;13.420;2023-09-08T01:57:15;19.70;58.50
81216;DHT22;70688;52.492;13.420;2023-09-08T01:59:40;19.70;58.40
81216;DHT22;70688;52.492;13.420;2023-09-08T02:02:06;19.90;57.70
81216;DHT22;70688;52.492;13.420;2023-09-08T02:04:32;19.90;57.50
81216;DHT22;70688;52.492;13.420;2023-09-08T02:06:57;19.90;57.80
81216;DHT22;70688;52.492;13.420;2023-09-08T02:09:30;20.00;57.70
81216;DHT22;70688;52.492;13.420;2023-09-08T02:11:55;19.80;58.00
81216;DHT22;70688;52.492;13.420;2023-09-08T02:14:21;19.50;59.00
81216;DHT22;70688;52.492;13.420;2023-09-08T02:16:46;19.40;59.30
81216;DHT22;70688;52.492;13.420;2023-09-08T02:19:12;19.60;58.90
81216;DHT22;70688;52.492;13.420;2023-09-08T02:21:37;19.60;59.30
81216;DHT22;70688;52.492;13.420;2023-09-08T02:24:03;19.40;59.40
81216;DHT22;70688;52.492;13.420;2023-09-08T02:26:28;19.50;59.30
81216;DHT22;70688;52.492;13.420;2023-09-08T02:28:57;19.70;58.80
81216;DHT22;70688;52.492;13.420;2023-09-08T02:31:22;19.60;58.70
81216;DHT22;70688;52.492;13.420;2023-09-08T02:33:48;19.60;58.80
81216;DHT22;70688;52.492;13.420;2023-09-08T02:36:13;19.50;59.00
81216;DHT22;70688;52.492;13.420;2023-09-08T02:38:39;19.30;60.00
81216;DHT22;70688;52.492;13.420;2023-09-08T02:41:04;19.30;59.90
81216;DHT22;70688;52.492;13.420;2023-09-08T02:43:30;19.30;59.90
81216;DHT22;70688;52.492;13.420;2023-09-08T02:45:55;19.20;60.20
81216;DHT22;70688;52.492;13.420;2023-09-08T02:48:21;19.40;59.90
81216;DHT22;70688;52.492;13.420;2023-09-08T02:50:46;19.30;60.10
81216;DHT22;70688;52.492;13.420;2023-09-08T02:53:12;19.30;60.10
81216;DHT22;70688;52.492;13.420;2023-09-08T02:55:37;19.30;60.30
81216;DHT22;70688;52.492;13.420;2023-09-08T02:58:03;19.20;60.50
81216;DHT22;70688;52.492;13.420;2023-09-08T03:00:28;18.80;61.90
81216;DHT22;70688;52.492;13.420;2023-09-08T03:02:54;18.70;62.40
81216;DHT22;70688;52.492;13.420;2023-09-08T03:05:20;18.80;62.00
81216;DHT22;70688;52.492;13.420;2023-09-08T03:07:49;18.90;61.80
81216;DHT22;70688;52.492;13.420;2023-09-08T03:10:14;19.20;60.70
81216;DHT22;70688;52.492;13.420;2023-09-08T03:12:41;18.90;61.50
81216;DHT22;70688;52.492;13.420;2023-09-08T03:15:07;19.20;60.30
81216;DHT22;70688;52.492;13.420;2023-09-08T03:17:32;19.30;60.20
81216;DHT22;70688;52.492;13.420;2023-09-08T03:19:58;19.00;60.70
81216;DHT22;70688;52.492;13.420;2023-09-08T03:22:23;19.00;61.10
81216;DHT22;70688;52.492;13.420;2023-09-08T03:24:50;19.00;60.70
81216;DHT22;70688;52.492;13.420;2023-09-08T03:27:15;19.00;60.80
81216;DHT22;70688;52.492;13.420;2023-09-08T03:29:41;18.80;61.40
81216;DHT22;70688;52.492;13.420;2023-09-08T03:32:06;18.70;62.20
81216;DHT22;70688;52.492;13.420;2023-09-08T03:34:32;18.70;61.90
81216;DHT22;70688;52.492;13.420;2023-09-08T03:36:57;18.90;61.40
81216;DHT22;70688;52.492;13.420;2023-09-08T03:39:22;19.00;61.00
81216;DHT22;70688;52.492;13.420;2023-09-08T03:41:48;18.90;61.40
81216;DHT22;70688;52.492;13.420;2023-09-08T03:44:13;18.80;61.70
81216;DHT22;70688;52.492;13.420;2023-09-08T03:46:39;18.80;61.80
81216;DHT22;70688;52.492;13.420;2023-09-08T03:49:04;18.70;62.50
81216;DHT22;70688;52.492;13.420;2023-09-08T03:51:30;18.60;62.50
81216;DHT22;70688;52.492;13.420;2023-09-08T03:53:55;18.60;62.50
81216;DHT22;70688;52.492;13.420;2023-09-08T03:56:21;18.30;63.70
81216;DHT22;70688;52.492;13.420;2023-09-08T03:58:47;18.40;63.60
81216;DHT22;70688;52.492;13.420;2023-09-08T04:01:13;18.60;62.90
81216;DHT22;70688;52.492;13.420;2023-09-08T04:03:38;18.80;62.20
81216;DHT22;70688;52.492;13.420;2023-09-08T04:06:04;18.80;62.00
81216;DHT22;70688;52.492;13.420;2023-09-08T04:08:29;18.60;62.80
81216;DHT22;70688;52.492;13.420;2023-09-08T04:10:55;18.50;63.30
81216;DHT22;70688;52.492;13.420;2023-09-08T04:13:20;18.30;63.80
81216;DHT22;70688;52.492;13.420;2023-09-08T04:15:46;18.20;64.30
81216;DHT22;70688;52.492;13.420;2023-09-08T04:18:11;18.40;63.50
81216;DHT22;70688;52.492;13.420;2023-09-08T04:20:36;18.30;64.00
81216;DHT22;70688;52.492;13.420;2023-09-08T04:23:02;18.20;64.60
81216;DHT22;70688;52.492;13.420;2023-09-08T04:25:28;18.30;64.50
81216;DHT22;70688;52.492;13.420;2023-09-08T04:27:53;18.40;63.80
81216;DHT22;70688;52.492;13.420;2023-09-08T04:30:19;18.40;63.90
81216;DHT22;70688;52.492;13.420;2023-09-08T04:32:44;18.30;63.90
81216;DHT22;70688;52.492;13.420;2023-09-08T04:35:10;18.20;64.50
81216;DHT22;70688;52.492;13.420;2023-09-08T04:37:35;18.30;64.50
81216;DHT22;70688;52.492;13.420;2023-09-08T04:40:02;18.60;63.20
81216;DHT22;70688;52.492;13.420;2023-09-08T04:42:28;18.70;62.70
81216;DHT22;70688;52.492;13.420;2023-09-08T04:44:54;18.60;62.90
81216;DHT22;70688;52.492;13.420;2023-09-08T04:47:19;18.30;64.10
81216;DHT22;70688;52.492;13.420;2023-09-08T04:49:45;18.40;63.90
81216;DHT22;70688;52.492;13.420;2023-09-08T04:52:10;18.60;63.20
81216;DHT22;70688;52.492;13.420;2023-09-08T04:54:36;18.60;63.20
81216;DHT22;70688;52.492;13.420;2023-09-08T04:57:02;18.50;63.60
81216;DHT22;70688;52.492;13.420;2023-09-08T04:59:28;18.40;63.80
81216;DHT22;70688;52.492;13.420;2023-09-08T05:01:53;18.60;63.10
81216;DHT22;70688;52.492;13.420;2023-09-08T05:04:19;18.40;63.90
81216;DHT22;70688;52.492;13.420;2023-09-08T05:06:44;18.60;63.40
81216;DHT22;70688;52.492;13.420;2023-09-08T05:09:10;18.60;63.00
81216;DHT22;70688;52.492;13.420;2023-09-08T05:11:35;18.70;63.10
81216;DHT22;70688;52.492;13.420;2023-09-08T05:14:01;18.80;62.20
81216;DHT22;70688;52.492;13.420;2023-09-08T05:16:27;18.50;63.10
81216;DHT22;70688;52.492;13.420;2023-09-08T05:19:03;18.60;63.40
81216;DHT22;70688;52.492;13.420;2023-09-08T05:21:30;19.00;62.20
81216;DHT22;70688;52.492;13.420;2023-09-08T05:23:55;19.50;60.40
81216;DHT22;70688;52.492;13.420;2023-09-08T05:26:21;19.70;59.40
81216;DHT22;70688;52.492;13.420;2023-09-08T05:28:46;20.00;58.20
81216;DHT22;70688;52.492;13.420;2023-09-08T05:31:12;20.10;58.00
81216;DHT22;70688;52.492;13.420;2023-09-08T05:33:37;20.00;58.30
81216;DHT22;70688;52.492;13.420;2023-09-08T05:36:03;19.80;58.50
81216;DHT22;70688;52.492;13.420;2023-09-08T05:38:28;19.60;59.50
81216;DHT22;70688;52.492;13.420;2023-09-08T05:40:54;19.80;58.60
81216;DHT22;70688;52.492;13.420;2023-09-08T05:43:19;19.80;58.50
81216;DHT22;70688;52.492;13.420;2023-09-08T05:45:45;19.80;58.50
81216;DHT22;70688;52.492;13.420;2023-09-08T05:48:10;19.60;59.20
81216;DHT22;70688;52.492;13.420;2023-09-08T05:50:36;19.90;58.20
81216;DHT22;70688;52.492;13.420;2023-09-08T05:53:04;19.90;58.50
81216;DHT22;70688;52.492;13.420;2023-09-08T05:55:30;19.90;58.50
81216;DHT22;70688;52.492;13.420;2023-09-08T05:57:55;20.00;58.40
81216;DHT22;70688;52.492;13.420;2023-09-08T06:00:21;19.90;58.50
81216;DHT22;70688;52.492;13.420;2023-09-08T06:02:47;19.90;58.40
81216;DHT22;70688;52.492;13.420;2023-09-08T06:05:13;20.00;58.00
81216;DHT22;70688;52.492;13.420;2023-09-08T06:07:38;20.20;57.60
81216;DHT22;70688;52.492;13.420;2023-09-08T06:10:04;20.80;55.90
81216;DHT22;70688;52.492;13.420;2023-09-08T06:12:30;21.60;53.40
81216;DHT22;70688;52.492;13.420;2023-09-08T06:14:55;22.40;51.40
81216;DHT22;70688;52.492;13.420;2023-09-08T06:17:21;23.00;49.60
81216;DHT22;70688;52.492;13.420;2023-09-08T06:19:46;22.90;48.80
81216;DHT22;70688;52.492;13.420;2023-09-08T06:22:12;23.20;48.20
81216;DHT22;70688;52.492;13.420;2023-09-08T06:24:37;22.90;48.40
81216;DHT22;70688;52.492;13.420;2023-09-08T06:27:03;22.60;49.70
81216;DHT22;70688;52.492;13.420;2023-09-08T06:29:28;22.70;49.70
81216;DHT22;70688;52.492;13.420;2023-09-08T06:31:54;22.40;50.40
81216;DHT22;70688;52.492;13.420;2023-09-08T06:34:19;22.30;50.70
81216;DHT22;70688;52.492;13.420;2023-09-08T06:36:47;22.70;49.60
81216;DHT22;70688;52.492;13.420;2023-09-08T06:39:13;22.70;49.50
81216;DHT22;70688;52.492;13.420;2023-09-08T06:41:38;22.70;49.50
81216;DHT22;70688;52.492;13.420;2023-09-08T06:44:04;23.40;48.30
81216;DHT22;70688;52.492;13.420;2023-09-08T06:46:30;24.50;45.20
81216;DHT22;70688;52.492;13.420;2023-09-08T06:48:55;26.00;41.90
81216;DHT22;70688;52.492;13.420;2023-09-08T06:51:22;26.80;39.50
81216;DHT22;70688;52.492;13.420;2023-09-08T06:53:55;27.00;39.20
81216;DHT22;70688;52.492;13.420;2023-09-08T06:56:21;28.60;36.30
81216;DHT22;70688;52.492;13.420;2023-09-08T06:58:47;29.00;35.00
81216;DHT22;70688;52.492;13.420;2023-09-08T07:01:12;30.20;32.80
81216;DHT22;70688;52.492;13.420;2023-09-08T07:03:38;30.70;31.40
81216;DHT22;70688;52.492;13.420;2023-09-08T07:06:03;31.20;30.30
81216;DHT22;70688;52.492;13.420;2023-09-08T07:08:29;31.70;29.80
81216;DHT22;70688;52.492;13.420;2023-09-08T07:10:54;31.60;29.60
81216;DHT22;70688;52.492;13.420;2023-09-08T07:13:20;32.00;29.30
81216;DHT22;70688;52.492;13.420;2023-09-08T07:15:46;33.20;28.30
81216;DHT22;70688;52.492;13.420;2023-09-08T07:18:11;32.70;28.00
81216;DHT22;70688;52.492;13.420;2023-09-08T07:20:37;33.30;27.20
81216;DHT22;70688;52.492;13.420;2023-09-08T07:23:02;33.90;27.00
81216;DHT22;70688;52.492;13.420;2023-09-08T07:25:28;34.00;26.40
81216;DHT22;70688;52.492;13.420;2023-09-08T07:27:54;33.20;27.10
81216;DHT22;70688;52.492;13.420;2023-09-08T07:30:19;33.20;27.10
81216;DHT22;70688;52.492;13.420;2023-09-08T07:32:45;33.90;26.50
81216;DHT22;70688;52.492;13.420;2023-09-08T07:35:10;34.10;26.10
81216;DHT22;70688;52.492;13.420;2023-09-08T07:37:40;34.70;25.20
81216;DHT22;70688;52.492;13.420;2023-09-08T07:40:07;35.40;24.80
81216;DHT22;70688;52.492;13.420;2023-09-08T07:42:32;36.30;23.80
81216;DHT22;70688;52.492;13.420;2023-09-08T07:44:58;35.60;23.90
81216;DHT22;70688;52.492;13.420;2023-09-08T07:47:23;34.70;24.60
81216;DHT22;70688;52.492;13.420;2023-09-08T07:49:49;34.40;24.80
81216;DHT22;70688;52.492;13.420;2023-09-08T07:52:14;34.60;24.40
81216;DHT22;70688;52.492;13.420;2023-09-08T07:54:40;34.20;25.20
81216;DHT22;70688;52.492;13.420;2023-09-08T07:57:05;34.00;25.50
81216;DHT22;70688;52.492;13.420;2023-09-08T07:59:31;34.90;24.80
81216;DHT22;70688;52.492;13.420;2023-09-08T08:01:56;34.20;25.10
81216;DHT22;70688;52.492;13.420;2023-09-08T08:04:22;34.50;25.00
81216;DHT22;70688;52.492;13.420;2023-09-08T08:06:47;34.50;25.00
81216;DHT22;70688;52.492;13.420;2023-09-08T08:09:14;35.80;24.00
81216;DHT22;70688;52.492;13.420;2023-09-08T08:11:40;36.40;22.70
81216;DHT22;70688;52.492;13.420;2023-09-08T08:14:05;36.50;22.60
81216;DHT22;70688;52.492;13.420;2023-09-08T08:16:31;36.00;23.70
81216;DHT22;70688;52.492;13.420;2023-09-08T08:18:56;35.50;23.90
81216;DHT22;70688;52.492;13.420;2023-09-08T08:21:22;34.50;24.40
81216;DHT22;70688;52.492;13.420;2023-09-08T08:23:48;35.50;24.10
81216;DHT22;70688;52.492;13.420;2023-09-08T08:26:13;35.00;24.20
81216;DHT22;70688;52.492;13.420;2023-09-08T08:28:39;35.60;23.30
81216;DHT22;70688;52.492;13.420;2023-09-08T08:31:05;34.70;24.40
81216;DHT22;70688;52.492;13.420;2023-09-08T08:33:30;34.70;24.40
81216;DHT22;70688;52.492;13.420;2023-09-08T08:35:56;35.30;24.00
81216;DHT22;70688;52.492;13.420;2023-09-08T08:38:21;34.80;24.70
81216;DHT22;70688;52.492;13.420;2023-09-08T08:40:47;35.70;23.80
81216;DHT22;70688;52.492;13.420;2023-09-08T08:43:13;36.20;23.40
81216;DHT22;70688;52.492;13.420;2023-09-08T08:45:39;35.80;23.60
81216;DHT22;70688;52.492;13.420;2023-09-08T08:48:05;36.10;23.60
81216;DHT22;70688;52.492;13.420;2023-09-08T08:50:31;35.50;23.80
81216;DHT22;70688;52.492;13.420;2023-09-08T08:52:57;35.70;23.90
81216;DHT22;70688;52.492;13.420;2023-09-08T08:55:24;35.90;23.30
81216;DHT22;70688;52.492;13.420;2023-09-08T08:57:50;35.60;23.10
81216;DHT22;70688;52.492;13.420;2023-09-08T09:00:16;34.40;24.40
81216;DHT22;70688;52.492;13.420;2023-09-08T09:02:43;33.00;26.30
81216;DHT22;70688;52.492;13.420;2023-09-08T09:05:13;34.40;25.30
81216;DHT22;70688;52.492;13.420;2023-09-08T09:07:42;35.60;24.20
81216;DHT22;70688;52.492;13.420;2023-09-08T09:10:07;34.90;24.20
81216;DHT22;70688;52.492;13.420;2023-09-08T09:12:33;34.10;24.60
81216;DHT22;70688;52.492;13.420;2023-09-08T09:15:01;33.80;24.90
81216;DHT22;70688;52.492;13.420;2023-09-08T09:17:30;34.10;25.20
81216;DHT22;70688;52.492;13.420;2023-09-08T09:22:40;33.30;26.10
81216;DHT22;70688;52.492;13.420;2023-09-08T09:25:06;32.40;27.20
81216;DHT22;70688;52.492;13.420;2023-09-08T09:27:33;32.20;27.70
81216;DHT22;70688;52.492;13.420;2023-09-08T09:30:00;31.90;28.30
81216;DHT22;70688;52.492;13.420;2023-09-08T09:32:26;30.70;30.50
81216;DHT22;70688;52.492;13.420;2023-09-08T09:34:54;30.10;30.30
81216;DHT22;70688;52.492;13.420;2023-09-08T09:37:20;29.80;31.50
81216;DHT22;70688;52.492;13.420;2023-09-08T09:39:49;28.90;33.10
81216;DHT22;70688;52.492;13.420;2023-09-08T09:42:15;28.40;33.60
81216;DHT22;70688;52.492;13.420;2023-09-08T09:44:41;28.10;34.70
81216;DHT22;70688;52.492;13.420;2023-09-08T09:47:06;28.10;34.10
81216;DHT22;70688;52.492;13.420;2023-09-08T09:49:35;27.80;35.00
81216;DHT22;70688;52.492;13.420;2023-09-08T09:52:06;27.80;34.50
81216;DHT22;70688;52.492;13.420;2023-09-08T09:54:32;28.00;34.80
81216;DHT22;70688;52.492;13.420;2023-09-08T09:56:57;28.00;35.20
81216;DHT22;70688;52.492;13.420;2023-09-08T09:59:23;27.90;35.10
81216;DHT22;70688;52.492;13.420;2023-09-08T10:01:49;28.10;34.80
81216;DHT22;70688;52.492;13.420;2023-09-08T10:04:15;28.20;35.20
81216;DHT22;70688;52.492;13.420;2023-09-08T10:06:41;28.10;35.90
81216;DHT22;70688;52.492;13.420;2023-09-08T10:09:07;28.30;35.40
81216;DHT22;70688;52.492;13.420;2023-09-08T10:11:42;28.20;35.30
81216;DHT22;70688;52.492;13.420;2023-09-08T10:14:09;28.20;35.50
81216;DHT22;70688;52.492;13.420;2023-09-08T10:16:38;28.20;35.40
81216;DHT22;70688;52.492;13.420;2023-09-08T10:19:05;28.40;35.00
81216;DHT22;70688;52.492;13.420;2023-09-08T10:21:32;28.40;35.10
81216;DHT22;70688;52.492;13.420;2023-09-08T10:23:59;28.00;35.70
81216;DHT22;70688;52.492;13.420;2023-09-08T10:26:30;28.20;35.20
81216;DHT22;70688;52.492;13.420;2023-09-08T10:28:58;28.20;34.80
81216;DHT22;70688;52.492;13.420;2023-09-08T10:31:26;28.30;35.00
81216;DHT22;70688;52.492;13.420;2023-09-08T10:33:55;28.20;35.00
81216;DHT22;70688;52.492;13.420;2023-09-08T10:36:22;28.10;35.20
81216;DHT22;70688;52.492;13.420;2023-09-08T10:38:48;28.00;35.30
81216;DHT22;70688;52.492;13.420;2023-09-08T10:43:44;28.00;34.90
81216;DHT22;70688;52.492;13.420;2023-09-08T10:46:10;28.40;34.10
81216;DHT22;70688;52.492;13.420;2023-09-08T10:48:43;28.20;34.30
81216;DHT22;70688;52.492;13.420;2023-09-08T10:51:15;28.20;34.90
81216;DHT22;70688;52.492;13.420;2023-09-08T10:53:41;28.20;34.50
81216;DHT22;70688;52.492;13.420;2023-09-08T10:56:06;28.00;34.70
81216;DHT22;70688;52.492;13.420;2023-09-08T10:58:33;28.10;34.20
81216;DHT22;70688;52.492;13.420;2023-09-08T11:01:01;28.10;34.90
81216;DHT22;70688;52.492;13.420;2023-09-08T11:03:27;28.20;34.20
81216;DHT22;70688;52.492;13.420;2023-09-08T11:05:53;28.00;34.70
81216;DHT22;70688;52.492;13.420;2023-09-08T11:08:19;28.00;35.00
81216;DHT22;70688;52.492;13.420;2023-09-08T11:10:44;28.10;34.50
81216;DHT22;70688;52.492;13.420;2023-09-08T11:13:10;28.40;34.10
81216;DHT22;70688;52.492;13.420;2023-09-08T11:15:36;28.30;34.60
81216;DHT22;70688;52.492;13.420;2023-09-08T11:18:05;28.30;34.70
81216;DHT22;70688;52.492;13.420;2023-09-08T11:20:32;28.50;34.00
81216;DHT22;70688;52.492;13.420;2023-09-08T11:22:57;28.40;33.40
81216;DHT22;70688;52.492;13.420;2023-09-08T11:25:23;28.50;34.80
81216;DHT22;70688;52.492;13.420;2023-09-08T11:27:48;28.30;35.10
81216;DHT22;70688;52.492;13.420;2023-09-08T11:30:15;28.30;33.00
81216;DHT22;70688;52.492;13.420;2023-09-08T11:32:41;28.10;33.60
81216;DHT22;70688;52.492;13.420;2023-09-08T11:35:07;28.10;33.20
81216;DHT22;70688;52.492;13.420;2023-09-08T11:37:37;28.30;33.20
81216;DHT22;70688;52.492;13.420;2023-09-08T11:40:07;28.20;32.80
81216;DHT22;70688;52.492;13.420;2023-09-08T11:42:43;28.40;32.60
81216;DHT22;70688;52.492;13.420;2023-09-08T11:45:12;28.30;32.50
81216;DHT22;70688;52.492;13.420;2023-09-08T11:47:41;28.10;33.70
81216;DHT22;70688;52.492;13.420;2023-09-08T11:50:08;28.30;33.60
81216;DHT22;70688;52.492;13.420;2023-09-08T11:52:34;28.60;32.70
81216;DHT22;70688;52.492;13.420;2023-09-08T11:54:59;28.70;32.70
81216;DHT22;70688;52.492;13.420;2023-09-08T11:57:25;28.70;32.50
81216;DHT22;70688;52.492;13.420;2023-09-08T11:59:51;28.60;31.70
81216;DHT22;70688;52.492;13.420;2023-09-08T12:02:16;28.70;32.00
81216;DHT22;70688;52.492;13.420;2023-09-08T12:04:42;28.70;31.80
81216;DHT22;70688;52.492;13.420;2023-09-08T12:07:11;28.60;31.70
81216;DHT22;70688;52.492;13.420;2023-09-08T12:09:40;28.90;31.80
81216;DHT22;70688;52.492;13.420;2023-09-08T12:12:05;28.50;32.00
81216;DHT22;70688;52.492;13.420;2023-09-08T12:14:39;28.50;31.60
81216;DHT22;70688;52.492;13.420;2023-09-08T12:17:05;28.40;32.10
81216;DHT22;70688;52.492;13.420;2023-09-08T12:19:40;28.40;32.00
81216;DHT22;70688;52.492;13.420;2023-09-08T12:22:07;28.30;32.30
81216;DHT22;70688;52.492;13.420;2023-09-08T12:24:47;28.30;31.90
81216;DHT22;70688;52.492;13.420;2023-09-08T12:27:14;28.30;32.00
81216;DHT22;70688;52.492;13.420;2023-09-08T12:29:39;28.50;32.00
81216;DHT22;70688;52.492;13.420;2023-09-08T12:32:05;28.40;32.50
81216;DHT22;70688;52.492;13.420;2023-09-08T12:34:30;28.40;32.50
81216;DHT22;70688;52.492;13.420;2023-09-08T12:36:56;28.70;33.30
81216;DHT22;70688;52.492;13.420;2023-09-08T12:39:21;28.50;32.50
81216;DHT22;70688;52.492;13.420;2023-09-08T12:41:47;28.40;31.90
81216;DHT22;70688;52.492;13.420;2023-09-08T12:44:13;28.60;32.00
81216;DHT22;70688;52.492;13.420;2023-09-08T12:46:38;28.50;32.30
81216;DHT22;70688;52.492;13.420;2023-09-08T12:49:05;28.30;33.50
81216;DHT22;70688;52.492;13.420;2023-09-08T12:51:37;28.50;32.70
81216;DHT22;70688;52.492;13.420;2023-09-08T12:54:03;28.50;32.80
81216;DHT22;70688;52.492;13.420;2023-09-08T12:56:29;28.50;31.10
81216;DHT22;70688;52.492;13.420;2023-09-08T12:58:54;28.50;31.20
81216;DHT22;70688;52.492;13.420;2023-09-08T13:01:20;28.60;31.20
81216;DHT22;70688;52.492;13.420;2023-09-08T13:03:45;28.70;32.00
81216;DHT22;70688;52.492;13.420;2023-09-08T13:06:11;28.60;31.90
81216;DHT22;70688;52.492;13.420;2023-09-08T13:08:36;28.40;32.50
81216;DHT22;70688;52.492;13.420;2023-09-08T13:11:02;28.40;33.20
81216;DHT22;70688;52.492;13.420;2023-09-08T13:13:28;28.60;31.70
81216;DHT22;70688;52.492;13.420;2023-09-08T13:15:54;28.70;31.10
81216;DHT22;70688;52.492;13.420;2023-09-08T13:18:20;28.70;31.30
81216;DHT22;70688;52.492;13.420;2023-09-08T13:20:45;28.70;31.10
81216;DHT22;70688;52.492;13.420;2023-09-08T13:23:11;28.90;31.10
81216;DHT22;70688;52.492;13.420;2023-09-08T13:25:36;29.10;30.00
81216;DHT22;70688;52.492;13.420;2023-09-08T13:28:02;28.80;30.40
81216;DHT22;70688;52.492;13.420;2023-09-08T13:30:27;28.50;31.00
81216;DHT22;70688;52.492;13.420;2023-09-08T13:32:53;28.50;31.40
81216;DHT22;70688;52.492;13.420;2023-09-08T13:35:20;28.80;31.10
81216;DHT22;70688;52.492;13.420;2023-09-08T13:37:46;28.90;30.60
81216;DHT22;70688;52.492;13.420;2023-09-08T13:40:11;28.90;30.60
81216;DHT22;70688;52.492;13.420;2023-09-08T13:42:38;29.10;29.90
81216;DHT22;70688;52.492;13.420;2023-09-08T13:45:04;28.90;29.90
81216;DHT22;70688;52.492;13.420;2023-09-08T13:47:29;29.00;30.00
81216;DHT22;70688;52.492;13.420;2023-09-08T13:49:55;28.70;30.10
81216;DHT22;70688;52.492;13.420;2023-09-08T13:52:20;28.80;30.20
81216;DHT22;70688;52.492;13.420;2023-09-08T13:54:46;28.80;30.00
81216;DHT22;70688;52.492;13.420;2023-09-08T13:57:11;28.80;30.60
81216;DHT22;70688;52.492;13.420;2023-09-08T13:59:37;28.80;29.90
81216;DHT22;70688;52.492;13.420;2023-09-08T14:02:02;29.00;30.60
81216;DHT22;70688;52.492;13.420;2023-09-08T14:04:28;28.90;30.60
81216;DHT22;70688;52.492;13.420;2023-09-08T14:06:54;28.80;30.80
81216;DHT22;70688;52.492;13.420;2023-09-08T14:09:19;28.80;30.10
81216;DHT22;70688;52.492;13.420;2023-09-08T14:11:45;28.70;30.60
81216;DHT22;70688;52.492;13.420;2023-09-08T14:14:10;28.60;30.70
81216;DHT22;70688;52.492;13.420;2023-09-08T14:16:36;28.50;30.50
81216;DHT22;70688;52.492;13.420;2023-09-08T14:19:01;28.70;29.90
81216;DHT22;70688;52.492;13.420;2023-09-08T14:21:27;28.80;30.00
81216;DHT22;70688;52.492;13.420;2023-09-08T14:23:53;28.90;30.00
81216;DHT22;70688;52.492;13.420;2023-09-08T14:26:19;28.70;29.40
81216;DHT22;70688;52.492;13.420;2023-09-08T14:28:45;28.60;29.70
81216;DHT22;70688;52.492;13.420;2023-09-08T14:31:11;28.70;28.90
81216;DHT22;70688;52.492;13.420;2023-09-08T14:33:36;28.60;28.80
81216;DHT22;70688;52.492;13.420;2023-09-08T14:36:02;28.70;29.20
81216;DHT22;70688;52.492;13.420;2023-09-08T14:38:28;28.60;29.20
81216;DHT22;70688;52.492;13.420;2023-09-08T14:40:55;28.70;29.20
81216;DHT22;70688;52.492;13.420;2023-09-08T14:43:21;28.60;29.20
81216;DHT22;70688;52.492;13.420;2023-09-08T14:45:46;28.70;29.40
81216;DHT22;70688;52.492;13.420;2023-09-08T14:48:11;28.90;29.40
81216;DHT22;70688;52.492;13.420;2023-09-08T14:50:37;29.00;28.70
81216;DHT22;70688;52.492;13.420;2023-09-08T14:53:03;29.00;28.60
81216;DHT22;70688;52.492;13.420;2023-09-08T14:55:29;28.70;29.10
81216;DHT22;70688;52.492;13.420;2023-09-08T14:57:54;28.70;29.00
81216;DHT22;70688;52.492;13.420;2023-09-08T15:00:20;28.70;28.40
81216;DHT22;70688;52.492;13.420;2023-09-08T15:02:46;28.70;28.40
81216;DHT22;70688;52.492;13.420;2023-09-08T15:05:11;28.60;28.60
81216;DHT22;70688;52.492;13.420;2023-09-08T15:07:37;28.90;28.60
81216;DHT22;70688;52.492;13.420;2023-09-08T15:10:02;28.90;28.60
81216;DHT22;70688;52.492;13.420;2023-09-08T15:12:29;28.70;28.60
81216;DHT22;70688;52.492;13.420;2023-09-08T15:14:55;28.70;28.80
81216;DHT22;70688;52.492;13.420;2023-09-08T15:17:20;28.80;28.60